FIN7KE EFMA-EFHK
Flight info
| Callsign | FIN7KE |
|---|---|
| Flight time | N/A |
| Altitude | 19000 |
| Route | EBEBU1D EBEBU DCT RIRIP Y364 LAKUT DCT MAROM DCT HK871 DCT HK937 DCT HK932/N0267F200 DCT NEMVI DCT ASPIT DCT RULLI DCT PODOM DCT EMPEV DCT |
| Aircraft | AT76/M-SDFGIRY/S |
Departure
| Time | 2026-04-18 16:32 |
|---|---|
| Airport | Mariehamn Airport (EFMA) |
Arrival
| Time | N/A |
|---|---|
| Airport | Helsinki Vantaa Airport (EFHK) |
| Time | Latitude | Longitude | Altitude | Speed | Heading |
|---|---|---|---|---|---|
| 2026-04-18 16:01 | 60.12475 | 19.90658 | 20 ft | 0 kts | 142° |
| 2026-04-18 16:22 | 60.12480 | 19.90648 | 20 ft | 2 kts | 162° |
| 2026-04-18 16:22 | 60.12492 | 19.90645 | 21 ft | 1 kts | 227° |
| 2026-04-18 16:22 | 60.12493 | 19.90645 | 20 ft | 0 kts | 233° |
| 2026-04-18 16:27 | 60.12488 | 19.90627 | 44 ft | 10 kts | 244° |
| 2026-04-18 16:27 | 60.12515 | 19.90400 | 21 ft | 20 kts | 294° |
| 2026-04-18 16:28 | 60.12557 | 19.90211 | 22 ft | 23 kts | 300° |
| 2026-04-18 16:28 | 60.12711 | 19.90246 | 22 ft | 30 kts | 26° |
| 2026-04-18 16:28 | 60.12905 | 19.90453 | 22 ft | 30 kts | 31° |
| 2026-04-18 16:28 | 60.12964 | 19.90483 | 21 ft | 7 kts | 299° |
| 2026-04-18 16:29 | 60.12939 | 19.90440 | 22 ft | 0 kts | 194° |
| 2026-04-18 16:31 | 60.12835 | 19.90354 | 23 ft | 45 kts | 202° |
| 2026-04-18 16:31 | 60.12373 | 19.89963 | 23 ft | 96 kts | 199° |
| 2026-04-18 16:32 | 60.11654 | 19.89410 | 91 ft | 120 kts | 200° |
| 2026-04-18 16:32 | 60.10821 | 19.88721 | 393 ft | 142 kts | 199° |
| 2026-04-18 16:32 | 60.09855 | 19.87928 | 717 ft | 159 kts | 201° |
| 2026-04-18 16:32 | 60.08805 | 19.87003 | 1118 ft | 174 kts | 201° |
| 2026-04-18 16:33 | 60.07630 | 19.86001 | 1490 ft | 191 kts | 202° |
| 2026-04-18 16:33 | 60.06306 | 19.85365 | 1812 ft | 203 kts | 172° |
| 2026-04-18 16:33 | 60.05055 | 19.86627 | 2185 ft | 207 kts | 131° |
| 2026-04-18 16:33 | 60.04214 | 19.88969 | 2609 ft | 209 kts | 118° |
| 2026-04-18 16:34 | 60.03549 | 19.91586 | 3083 ft | 212 kts | 112° |
| 2026-04-18 16:34 | 60.02967 | 19.94324 | 3591 ft | 213 kts | 110° |
| 2026-04-18 16:34 | 60.02407 | 19.97057 | 4155 ft | 212 kts | 110° |
| 2026-04-18 16:34 | 60.02101 | 19.99891 | 4680 ft | 209 kts | 80° |
| 2026-04-18 16:35 | 60.02456 | 20.02638 | 5210 ft | 206 kts | 69° |
| 2026-04-18 16:35 | 60.02938 | 20.05350 | 5738 ft | 207 kts | 67° |
| 2026-04-18 16:35 | 60.03437 | 20.08060 | 6273 ft | 209 kts | 68° |
| 2026-04-18 16:35 | 60.03933 | 20.10802 | 6814 ft | 210 kts | 68° |
| 2026-04-18 16:36 | 60.04403 | 20.13573 | 7333 ft | 211 kts | 69° |
| 2026-04-18 16:36 | 60.04863 | 20.16377 | 7857 ft | 213 kts | 69° |
| 2026-04-18 16:36 | 60.05321 | 20.19202 | 8389 ft | 214 kts | 69° |
| 2026-04-18 16:36 | 60.05783 | 20.22055 | 8923 ft | 216 kts | 69° |
| 2026-04-18 16:37 | 60.06245 | 20.24927 | 9467 ft | 217 kts | 69° |
| 2026-04-18 16:37 | 60.06712 | 20.27819 | 10011 ft | 219 kts | 69° |
| 2026-04-18 16:37 | 60.07184 | 20.30732 | 10519 ft | 220 kts | 69° |
| 2026-04-18 16:37 | 60.07653 | 20.33654 | 11019 ft | 221 kts | 69° |
| 2026-04-18 16:38 | 60.08127 | 20.36605 | 11528 ft | 223 kts | 69° |
| 2026-04-18 16:38 | 60.08601 | 20.39562 | 12026 ft | 224 kts | 69° |
| 2026-04-18 16:38 | 60.09070 | 20.42500 | 12541 ft | 225 kts | 69° |
| 2026-04-18 16:38 | 60.09551 | 20.45490 | 13041 ft | 226 kts | 69° |
| 2026-04-18 16:39 | 60.09965 | 20.48536 | 13550 ft | 228 kts | 75° |
| 2026-04-18 16:39 | 60.10282 | 20.51664 | 14071 ft | 230 kts | 76° |
| 2026-04-18 16:39 | 60.10589 | 20.54814 | 14527 ft | 231 kts | 76° |
| 2026-04-18 16:39 | 60.10909 | 20.57966 | 14989 ft | 231 kts | 75° |
| 2026-04-18 16:40 | 60.11258 | 20.61125 | 15449 ft | 232 kts | 74° |
| 2026-04-18 16:40 | 60.11611 | 20.64274 | 15905 ft | 232 kts | 74° |
| 2026-04-18 16:40 | 60.11965 | 20.67428 | 16355 ft | 233 kts | 73° |
| 2026-04-18 16:40 | 60.12322 | 20.70610 | 16807 ft | 233 kts | 73° |
| 2026-04-18 16:41 | 60.13035 | 20.76973 | 17701 ft | 234 kts | 73° |
| 2026-04-18 16:41 | 60.13391 | 20.80165 | 18144 ft | 235 kts | 73° |
| 2026-04-18 16:41 | 60.13746 | 20.83361 | 18568 ft | 235 kts | 73° |
| 2026-04-18 16:42 | 60.14102 | 20.86573 | 18904 ft | 238 kts | 73° |
| 2026-04-18 16:42 | 60.14467 | 20.89855 | 19088 ft | 247 kts | 73° |
| 2026-04-18 16:42 | 60.14842 | 20.93267 | 19168 ft | 259 kts | 74° |
| 2026-04-18 16:42 | 60.15240 | 20.96886 | 19206 ft | 271 kts | 74° |
| 2026-04-18 16:43 | 60.15652 | 21.00661 | 19226 ft | 282 kts | 74° |
| 2026-04-18 16:43 | 60.16055 | 21.04334 | 19236 ft | 290 kts | 74° |
| 2026-04-18 16:43 | 60.16491 | 21.08344 | 19243 ft | 297 kts | 74° |
| 2026-04-18 16:43 | 60.16936 | 21.12437 | 19242 ft | 303 kts | 74° |
| 2026-04-18 16:44 | 60.17385 | 21.16595 | 19243 ft | 307 kts | 75° |
| 2026-04-18 16:44 | 60.17841 | 21.20821 | 19243 ft | 311 kts | 74° |
| 2026-04-18 16:44 | 60.18302 | 21.25086 | 19244 ft | 313 kts | 74° |